Time;durP1;ratioP1;P1;durP2;ratioP2;P2;SDS_P1;SDS_P2;PMS_P1;PMS_P2;Temp;Humidity;BMP_temperature;BMP_pressure;BME280_temperature;BME280_humidity;BME280_pressure;Samples;Min_cycle;Max_cycle;Signal;HPM_P1;HPM_P2
2023/09/26 00:02:23;;;;;;;13.00;9.50;;;;;;;18.14;95.78;101529.46;214028;1287;142048;-85
2023/09/26 00:07:23;;;;;;;14.80;9.10;;;;;;;18.13;96.08;101530.25;214681;1287;139957;-86
2023/09/26 00:12:24;;;;;;;13.80;8.30;;;;;;;18.12;96.09;101528.75;214676;1288;140950;-86
2023/09/26 00:17:24;;;;;;;15.50;8.90;;;;;;;18.09;96.40;101522.54;215292;1288;139620;-86
2023/09/26 00:22:25;;;;;;;13.70;8.60;;;;;;;18.05;96.84;101526.45;216253;1284;141713;-85
2023/09/26 00:27:25;;;;;;;14.00;9.10;;;;;;;18.02;96.76;101524.55;216532;1284;98239;-85
2023/09/26 00:32:25;;;;;;;15.70;9.80;;;;;;;17.98;97.21;101513.17;215302;1286;140861;-86
2023/09/26 00:37:26;;;;;;;19.40;10.70;;;;;;;17.96;97.21;101515.56;216180;1286;139319;-86
2023/09/26 00:42:26;;;;;;;16.30;10.10;;;;;;;17.96;97.31;101514.61;215827;1285;141523;-85
2023/09/26 00:47:27;;;;;;;16.30;10.90;;;;;;;17.95;97.52;101517.23;216356;1285;139589;-85
2023/09/26 00:52:28;;;;;;;18.10;10.50;;;;;;;17.93;97.50;101514.61;215766;1285;141664;-86
2023/09/26 00:57:33;;;;;;;16.60;10.60;;;;;;;17.93;97.62;101510.09;216171;1288;97035;-86
2023/09/26 01:02:33;;;;;;;15.20;9.50;;;;;;;17.92;97.64;101515.33;215738;1287;140373;-85
2023/09/26 01:07:35;;;;;;;18.10;11.20;;;;;;;17.90;98.20;101517.80;215885;1285;139404;-85
2023/09/26 01:12:37;;;;;;;19.80;11.10;;;;;;;17.85;98.69;101510.73;215710;1284;141155;-85
2023/09/26 01:17:38;;;;;;;15.80;9.70;;;;;;;17.80;98.95;101505.09;216134;1285;140035;-86
2023/09/26 01:22:43;;;;;;;15.50;10.10;;;;;;;17.76;99.07;101506.36;215478;1287;140555;-85
2023/09/26 01:27:43;;;;;;;16.70;9.90;;;;;;;17.71;99.42;101502.31;216522;1285;107615;-85
2023/09/26 01:32:45;;;;;;;17.60;10.00;;;;;;;17.69;99.09;101499.92;215743;1288;141920;-86
2023/09/26 01:37:49;;;;;;;13.90;9.70;;;;;;;17.64;99.70;101499.30;216324;1285;138912;-85
2023/09/26 01:42:49;;;;;;;13.10;8.70;;;;;;;17.59;99.77;101499.37;215450;1285;141424;-85
2023/09/26 01:47:51;;;;;;;14.10;8.10;;;;;;;17.58;99.24;101500.41;215812;1286;138985;-85
2023/09/26 01:52:52;;;;;;;16.30;9.80;;;;;;;17.57;99.73;101499.94;215437;1286;140127;-85
2023/09/26 01:57:52;;;;;;;17.70;9.40;;;;;;;17.52;99.74;101497.23;216558;1288;97936;-85
2023/09/26 02:02:53;;;;;;;13.40;9.20;;;;;;;17.49;99.87;101498.89;215674;1288;141644;-85
2023/09/26 02:07:53;;;;;;;15.70;9.60;;;;;;;17.45;99.87;101489.60;216253;1285;139396;-85
2023/09/26 02:12:54;;;;;;;15.90;9.80;;;;;;;17.39;99.99;101498.41;215865;1285;140972;-86
2023/09/26 02:17:55;;;;;;;15.70;9.30;;;;;;;17.35;99.97;101493.21;216064;1285;138834;-85
2023/09/26 02:22:56;;;;;;;15.90;9.60;;;;;;;17.30;100.00;101493.77;215646;1286;142074;-85
2023/09/26 02:27:56;;;;;;;15.70;10.80;;;;;;;17.23;100.00;101495.91;216435;1285;97855;-85
2023/09/26 02:32:57;;;;;;;15.10;9.70;;;;;;;17.17;100.00;101495.60;215722;1284;141680;-85
2023/09/26 02:37:57;;;;;;;18.20;10.50;;;;;;;17.12;100.00;101491.14;216181;1286;139240;-85
2023/09/26 02:42:58;;;;;;;16.50;9.80;;;;;;;17.07;100.00;101491.29;215260;1286;142007;-85
2023/09/26 02:47:59;;;;;;;17.20;10.00;;;;;;;17.03;100.00;101488.02;215719;1286;139269;-85
2023/09/26 02:52:59;;;;;;;18.70;11.10;;;;;;;17.00;100.00;101481.34;215007;1286;141432;-85
2023/09/26 02:58:00;;;;;;;17.90;10.50;;;;;;;16.97;100.00;101476.48;215527;1288;139510;-85
2023/09/26 03:03:00;;;;;;;16.00;10.20;;;;;;;16.95;100.00;101477.67;215303;1288;140757;-86
2023/09/26 03:08:01;;;;;;;16.30;10.10;;;;;;;16.91;100.00;101475.05;215747;1286;139244;-85
2023/09/26 03:13:02;;;;;;;17.20;10.70;;;;;;;16.88;100.00;101481.72;215398;1285;141124;-85
2023/09/26 03:18:03;;;;;;;18.20;10.30;;;;;;;16.84;100.00;101478.69;216154;1288;139173;-85
2023/09/26 03:23:03;;;;;;;20.00;11.40;;;;;;;16.79;100.00;101477.64;215442;1286;141244;-85
2023/09/26 03:28:04;;;;;;;17.90;9.80;;;;;;;16.72;100.00;101476.66;216231;1286;139731;-85
2023/09/26 03:33:04;;;;;;;17.50;10.00;;;;;;;16.64;100.00;101471.89;215840;1286;141752;-85
2023/09/26 03:38:05;;;;;;;17.80;10.30;;;;;;;16.54;100.00;101465.49;215901;1285;138996;-85
2023/09/26 03:43:05;;;;;;;19.00;11.00;;;;;;;16.47;100.00;101470.08;215369;1285;143651;-85
2023/09/26 03:48:07;;;;;;;19.30;10.60;;;;;;;16.40;100.00;101467.27;216280;1288;139841;-85
2023/09/26 03:53:07;;;;;;;14.10;10.50;;;;;;;16.34;100.00;101468.09;215674;1284;141784;-85
2023/09/26 03:58:07;;;;;;;18.40;11.80;;;;;;;16.26;100.00;101462.04;216255;1285;139201;-84
2023/09/26 04:03:08;;;;;;;18.50;11.20;;;;;;;16.19;100.00;101463.10;215798;1288;141583;-84
2023/09/26 04:08:08;;;;;;;17.60;11.30;;;;;;;16.15;100.00;101461.65;216478;1286;139050;-85
2023/09/26 04:13:09;;;;;;;19.40;12.80;;;;;;;16.09;100.00;101460.12;215865;1285;141519;-84
2023/09/26 04:18:09;;;;;;;18.90;12.50;;;;;;;16.05;100.00;101458.84;216463;1285;139195;-85
2023/09/26 04:23:09;;;;;;;22.40;13.10;;;;;;;16.00;100.00;101461.49;215566;1285;143264;-85
2023/09/26 04:28:10;;;;;;;17.20;11.70;;;;;;;15.94;100.00;101465.67;216240;1284;139171;-85
2023/09/26 04:33:10;;;;;;;18.50;12.10;;;;;;;15.88;100.00;101470.08;215878;1286;140799;-85
2023/09/26 04:38:11;;;;;;;20.40;12.60;;;;;;;15.81;100.00;101473.44;216240;1285;139345;-85
2023/09/26 04:43:11;;;;;;;18.90;12.90;;;;;;;15.75;100.00;101474.12;215608;1285;141754;-84
2023/09/26 04:48:12;;;;;;;18.10;11.70;;;;;;;15.70;100.00;101467.42;216324;1285;139179;-85
2023/09/26 04:53:12;;;;;;;18.90;11.60;;;;;;;15.66;100.00;101463.83;215945;1284;141578;-85
2023/09/26 04:58:12;;;;;;;17.90;11.00;;;;;;;15.62;100.00;101462.60;216538;1285;140814;-85
2023/09/26 05:03:14;;;;;;;19.70;12.50;;;;;;;15.59;100.00;101459.34;216091;1285;142189;-85
2023/09/26 05:08:15;;;;;;;19.00;13.50;;;;;;;15.57;100.00;101468.75;216538;1285;139130;-85
2023/09/26 05:13:15;;;;;;;20.70;13.70;;;;;;;15.56;100.00;101465.58;215783;1285;140843;-85
2023/09/26 05:18:15;;;;;;;24.50;15.40;;;;;;;15.57;100.00;101466.14;216505;1286;139380;-85
2023/09/26 05:23:16;;;;;;;22.00;14.60;;;;;;;15.58;100.00;101462.74;215683;1287;142814;-84
2023/09/26 05:28:16;;;;;;;20.20;14.30;;;;;;;15.60;100.00;101464.80;216517;1285;139737;-84
2023/09/26 05:33:17;;;;;;;22.10;14.60;;;;;;;15.63;100.00;101463.23;216191;1286;141126;-85
2023/09/26 05:38:17;;;;;;;23.70;15.00;;;;;;;15.66;100.00;101470.96;216500;1285;139035;-83
2023/09/26 05:43:18;;;;;;;22.00;14.50;;;;;;;15.70;100.00;101474.48;215886;1286;141803;-83
2023/09/26 05:48:19;;;;;;;22.90;13.80;;;;;;;15.73;100.00;101472.52;216353;1285;139800;-83
2023/09/26 05:53:20;;;;;;;25.40;15.60;;;;;;;15.79;100.00;101475.02;215657;1286;140298;-83
2023/09/26 05:58:20;;;;;;;23.40;16.80;;;;;;;15.85;100.00;101475.05;215968;1290;139324;-84
2023/09/26 06:03:20;;;;;;;25.50;16.40;;;;;;;15.90;100.00;101481.44;216332;1284;140687;-82
2023/09/26 06:08:21;;;;;;;22.90;16.30;;;;;;;15.97;100.00;101476.31;216974;1285;139073;-83
2023/09/26 06:13:22;;;;;;;26.00;16.80;;;;;;;16.03;100.00;101476.82;215565;1285;140621;-82
2023/09/26 06:18:22;;;;;;;26.60;17.60;;;;;;;16.12;100.00;101477.44;216451;1284;139709;-83
2023/09/26 06:23:23;;;;;;;23.80;16.20;;;;;;;16.21;100.00;101483.83;216452;1286;139965;-83
2023/09/26 06:28:24;;;;;;;27.80;17.60;;;;;;;16.32;100.00;101488.72;217226;1285;139342;-83
2023/09/26 06:33:25;;;;;;;27.00;16.20;;;;;;;16.43;100.00;101482.29;216309;1288;140794;-82
2023/09/26 06:38:26;;;;;;;28.90;18.30;;;;;;;16.55;100.00;101478.61;216314;1286;140781;-83
2023/09/26 06:43:26;;;;;;;28.00;18.50;;;;;;;16.67;100.00;101476.17;215999;1287;141087;-82
2023/09/26 06:48:27;;;;;;;24.20;16.00;;;;;;;16.80;100.00;101479.40;215129;1288;139411;-82
2023/09/26 06:53:27;;;;;;;26.60;16.70;;;;;;;16.94;100.00;101478.48;214483;1288;144288;-85
2023/09/26 06:58:28;;;;;;;26.40;17.30;;;;;;;17.08;100.00;101484.69;216247;1286;141286;-84
2023/09/26 07:03:29;;;;;;;26.50;16.40;;;;;;;17.21;100.00;101478.98;215876;1287;140877;-84
2023/09/26 07:08:30;;;;;;;25.70;16.80;;;;;;;17.35;100.00;101482.66;215926;1286;139774;-83
2023/09/26 07:13:31;;;;;;;25.20;15.70;;;;;;;17.52;100.00;101484.19;214897;1287;140496;-85
2023/09/26 07:18:33;;;;;;;22.60;16.10;;;;;;;17.64;100.00;101480.99;215936;1285;139582;-84
2023/09/26 07:23:35;;;;;;;24.20;15.70;;;;;;;17.79;100.00;101477.64;214918;1288;142331;-84
2023/09/26 07:28:37;;;;;;;24.10;16.40;;;;;;;17.93;100.00;101475.14;215381;1286;139315;-84
2023/09/26 07:33:38;;;;;;;25.40;15.40;;;;;;;18.08;100.00;101475.66;215226;1287;141267;-84
2023/09/26 07:38:38;;;;;;;24.60;16.20;;;;;;;18.22;100.00;101474.27;215671;1285;139120;-83
2023/09/26 07:43:39;;;;;;;29.70;16.50;;;;;;;18.38;100.00;101478.53;213836;1288;141803;-84
2023/09/26 07:48:40;;;;;;;27.10;16.80;;;;;;;18.53;100.00;101478.63;214727;1284;139175;-85
2023/09/26 07:53:40;;;;;;;28.40;17.40;;;;;;;18.70;100.00;101471.13;215481;1286;141804;-84
2023/09/26 07:58:41;;;;;;;26.60;17.00;;;;;;;18.88;100.00;101476.05;215992;1286;140293;-83
2023/09/26 08:03:43;;;;;;;26.30;17.80;;;;;;;19.07;100.00;101476.80;215072;1287;141516;-84
2023/09/26 08:08:45;;;;;;;28.90;18.80;;;;;;;19.28;100.00;101476.03;215972;1285;139686;-84
2023/09/26 08:13:45;;;;;;;24.20;17.40;;;;;;;19.49;100.00;101478.41;215652;1288;140505;-84
2023/09/26 08:18:46;;;;;;;29.10;18.20;;;;;;;19.74;100.00;101480.19;216359;1284;140526;-84
2023/09/26 08:23:46;;;;;;;27.70;16.70;;;;;;;19.98;100.00;101475.70;215752;1285;140559;-84
2023/09/26 08:28:46;;;;;;;25.00;16.30;;;;;;;20.26;100.00;101472.94;216240;1284;139192;-84
2023/09/26 08:33:49;;;;;;;24.10;15.00;;;;;;;20.58;100.00;101467.90;215172;1287;141535;-84
2023/09/26 08:38:51;;;;;;;25.00;15.10;;;;;;;20.89;100.00;101467.48;215874;1287;139105;-85
2023/09/26 08:43:52;;;;;;;33.60;14.90;;;;;;;21.24;100.00;101469.58;215003;1287;140979;-85
2023/09/26 08:48:54;;;;;;;29.80;13.80;;;;;;;21.59;100.00;101466.60;215973;1287;139320;-84
2023/09/26 08:53:55;;;;;;;21.50;12.90;;;;;;;21.99;100.00;101457.78;215415;1286;142097;-85
2023/09/26 08:58:56;;;;;;;21.40;11.10;;;;;;;22.40;99.14;101456.41;216246;1285;139883;-84
2023/09/26 09:03:56;;;;;;;28.50;13.00;;;;;;;22.74;97.25;101457.30;215426;1287;140993;-84
2023/09/26 09:09:10;;;;;;;18.40;11.90;;;;;;;22.96;95.23;101455.42;216401;1286;140512;-84
2023/09/26 09:14:10;;;;;;;30.40;11.90;;;;;;;23.09;92.74;101456.07;215525;1285;139152;-84
2023/09/26 09:19:11;;;;;;;17.50;10.40;;;;;;;22.94;90.79;101454.57;215319;1288;140881;-84
2023/09/26 09:24:12;;;;;;;17.50;11.40;;;;;;;22.86;91.21;101456.21;215765;1285;139105;-83
2023/09/26 09:29:19;;;;;;;19.70;11.30;;;;;;;22.92;90.02;101450.38;215545;1285;140808;-84
2023/09/26 09:34:21;;;;;;;17.90;10.80;;;;;;;22.93;89.66;101452.45;215833;1286;139028;-85
2023/09/26 09:39:22;;;;;;;16.80;10.20;;;;;;;23.01;89.69;101446.96;216086;1285;140842;-85
2023/09/26 09:44:23;;;;;;;19.00;9.80;;;;;;;23.22;89.81;101442.04;216387;1285;138812;-85
2023/09/26 09:49:30;;;;;;;21.00;10.60;;;;;;;23.50;87.94;101441.44;215767;1288;141311;-84
2023/09/26 09:54:36;;;;;;;20.90;10.60;;;;;;;23.72;86.15;101437.71;216178;1288;139175;-84
2023/09/26 09:59:37;;;;;;;;;;;;;;;23.82;84.63;101430.84;215551;1288;140694;-84
2023/09/26 10:04:38;;;;;;;18.60;10.70;;;;;;;23.98;84.72;101429.55;216208;1286;125309;-87
2023/09/26 10:09:40;;;;;;;16.30;9.30;;;;;;;24.47;83.71;101425.85;216107;1285;141386;-85
2023/09/26 10:14:41;;;;;;;17.00;9.90;;;;;;;24.97;81.40;101423.33;215825;1286;138867;-83
2023/09/26 10:19:42;;;;;;;17.90;10.10;;;;;;;25.50;81.23;101422.85;215579;1285;142350;-85
2023/09/26 10:24:53;;;;;;;16.20;9.60;;;;;;;25.96;78.17;101424.32;215895;1286;139056;-86
2023/09/26 10:29:55;;;;;;;15.70;9.90;;;;;;;26.27;76.88;101413.14;215338;1288;141053;-86
2023/09/26 10:34:57;;;;;;;17.10;9.60;;;;;;;26.48;75.14;101410.47;215945;1285;138823;-85
2023/09/26 10:39:57;;;;;;;17.60;9.80;;;;;;;26.62;73.58;101405.38;215364;1288;140466;-85
2023/09/26 10:44:57;;;;;;;19.30;11.30;;;;;;;26.72;73.19;101403.44;215640;1287;138515;-85
2023/09/26 10:49:59;;;;;;;17.40;10.10;;;;;;;26.85;71.70;101398.32;215205;1285;140721;-85
2023/09/26 10:54:59;;;;;;;14.70;9.70;;;;;;;26.92;71.02;101393.00;216595;1288;137238;-83
2023/09/26 11:00:07;;;;;;;18.80;9.90;;;;;;;27.14;70.66;101386.27;215419;1285;139599;-83
2023/09/26 11:05:09;;;;;;;19.10;12.20;;;;;;;27.10;69.45;101383.60;215845;1288;138313;-86
2023/09/26 11:10:15;;;;;;;16.70;10.70;;;;;;;27.16;69.19;101384.33;215811;1288;140565;-84
2023/09/26 11:15:15;;;;;;;19.70;12.50;;;;;;;27.35;68.72;101383.84;216452;1287;112386;-87
2023/09/26 11:20:16;;;;;;;18.60;10.10;;;;;;;27.47;68.49;101377.91;216161;1286;141057;-86
2023/09/26 11:25:16;;;;;;;19.50;11.10;;;;;;;27.34;67.58;101376.80;216420;1285;139369;-86
2023/09/26 11:30:19;;;;;;;20.20;11.10;;;;;;;27.35;68.63;101371.83;216016;1286;140874;-85
2023/09/26 11:35:21;;;;;;;22.90;10.60;;;;;;;27.44;67.93;101368.89;217458;1285;138470;-86
2023/09/26 11:40:26;;;;;;;17.30;10.80;;;;;;;27.51;67.03;101369.43;218325;1285;140330;-86
2023/09/26 11:45:29;;;;;;;26.90;11.40;;;;;;;27.62;67.47;101364.16;219133;1285;96642;-87
2023/09/26 11:50:30;;;;;;;19.10;9.70;;;;;;;27.57;66.52;101360.42;216017;1287;140549;-86
2023/09/26 11:55:30;;;;;;;20.60;12.10;;;;;;;27.44;66.93;101358.80;214960;1285;138009;-87
2023/09/26 12:00:31;;;;;;;17.90;10.60;;;;;;;27.23;66.48;101349.58;214470;1285;141151;-86
2023/09/26 12:05:32;;;;;;;19.00;11.30;;;;;;;26.95;66.73;101346.36;214672;1290;138737;-85
2023/09/26 12:10:33;;;;;;;21.00;10.40;;;;;;;27.04;66.79;101348.01;215270;1285;141167;-86
2023/09/26 12:15:33;;;;;;;18.50;11.00;;;;;;;26.95;66.50;101347.33;215068;1285;97926;-88
2023/09/26 12:20:33;;;;;;;23.40;11.70;;;;;;;26.88;67.07;101344.49;214961;1286;140356;-86
2023/09/26 12:25:35;;;;;;;21.50;11.50;;;;;;;26.82;66.67;101345.57;215009;1286;138947;-86
2023/09/26 12:30:35;;;;;;;20.20;11.40;;;;;;;26.80;67.25;101343.77;214786;1288;141159;-85
2023/09/26 12:35:36;;;;;;;22.90;11.50;;;;;;;26.80;66.75;101336.20;215465;1286;139251;-86
2023/09/26 12:40:37;;;;;;;21.20;11.20;;;;;;;26.78;67.33;101333.95;215206;1288;140598;-85
2023/09/26 12:45:38;;;;;;;22.70;12.10;;;;;;;26.75;66.73;101330.16;216080;1286;99247;-87
2023/09/26 12:50:38;;;;;;;21.60;12.20;;;;;;;26.56;67.43;101329.44;215450;1286;140652;-84
2023/09/26 12:55:39;;;;;;;18.40;10.90;;;;;;;26.36;67.26;101331.36;215215;1288;138934;-85
2023/09/26 13:00:39;;;;;;;19.40;11.20;;;;;;;26.19;67.80;101329.16;214775;1285;140098;-86
2023/09/26 13:05:40;;;;;;;18.60;12.80;;;;;;;25.97;68.39;101319.63;216020;1285;139896;-86
2023/09/26 13:10:41;;;;;;;21.80;10.70;;;;;;;25.73;68.83;101318.66;215434;1288;140469;-86
2023/09/26 13:15:42;;;;;;;22.50;11.80;;;;;;;25.63;70.02;101306.72;215791;1288;98020;-85
2023/09/26 13:20:42;;;;;;;18.90;11.10;;;;;;;25.63;70.50;101301.23;214539;1285;141138;-86
2023/09/26 13:25:43;;;;;;;21.30;12.30;;;;;;;25.55;70.71;101297.20;215193;1288;138433;-85
2023/09/26 13:30:43;;;;;;;19.70;10.80;;;;;;;25.39;70.94;101291.67;215277;1288;140382;-87
2023/09/26 13:35:44;;;;;;;23.10;11.60;;;;;;;25.44;71.66;101291.63;215355;1286;139960;-87
2023/09/26 13:40:46;;;;;;;23.50;12.10;;;;;;;25.45;71.40;101288.88;214506;1288;139699;-86
2023/09/26 13:45:46;;;;;;;23.10;11.30;;;;;;;25.38;71.88;101289.39;214353;1290;97930;-84
2023/09/26 13:50:46;;;;;;;21.50;11.00;;;;;;;25.29;71.89;101284.61;214709;1286;139310;-86
2023/09/26 13:55:47;;;;;;;19.10;10.70;;;;;;;25.27;72.47;101277.36;215308;1286;138942;-84
2023/09/26 14:00:48;;;;;;;18.20;10.20;;;;;;;25.24;72.08;101277.39;214495;1288;143121;-84
2023/09/26 14:05:48;;;;;;;18.10;10.10;;;;;;;25.09;72.15;101280.54;215408;1288;138944;-86
2023/09/26 14:10:49;;;;;;;16.90;10.30;;;;;;;25.03;72.66;101279.06;214682;1288;140535;-87
2023/09/26 14:15:53;;;;;;;16.50;10.20;;;;;;;25.01;72.71;101279.79;215338;1288;98116;-86
2023/09/26 14:20:58;;;;;;;20.00;10.80;;;;;;;24.91;72.92;101271.62;214442;1286;140840;-87
2023/09/26 14:25:59;;;;;;;16.10;9.70;;;;;;;24.86;73.34;101271.70;215142;1288;139303;-85
2023/09/26 14:30:59;;;;;;;21.60;10.90;;;;;;;24.77;72.94;101271.13;214554;1289;141497;-85
2023/09/26 14:36:00;;;;;;;18.30;10.20;;;;;;;24.64;73.38;101262.23;214858;1290;138774;-85
2023/09/26 14:41:00;;;;;;;19.90;10.30;;;;;;;24.54;73.90;101256.73;214083;1286;140481;-84
2023/09/26 14:46:02;;;;;;;17.70;11.40;;;;;;;24.46;74.27;101253.49;215729;1286;97924;-84
2023/09/26 14:51:03;;;;;;;21.50;10.70;;;;;;;24.42;74.68;101250.81;218450;1286;140609;-84
2023/09/26 14:56:03;;;;;;;20.90;11.00;;;;;;;24.31;74.80;101244.15;214855;1287;138741;-86
2023/09/26 15:01:04;;;;;;;20.40;11.60;;;;;;;24.19;74.89;101241.26;214457;1290;140343;-86
2023/09/26 15:06:05;;;;;;;21.10;11.60;;;;;;;24.14;75.15;101239.50;214846;1290;138985;-86
2023/09/26 15:11:06;;;;;;;23.10;11.60;;;;;;;24.06;75.29;101236.99;214370;1287;140798;-85
2023/09/26 15:16:06;;;;;;;20.90;12.90;;;;;;;23.97;75.23;101239.54;214943;1290;97887;-85
2023/09/26 15:21:07;;;;;;;22.40;13.80;;;;;;;23.88;75.82;101235.55;214532;1285;141289;-86
2023/09/26 15:26:08;;;;;;;24.40;13.30;;;;;;;23.80;76.03;101235.77;215454;1286;138399;-85
2023/09/26 15:31:10;;;;;;;21.30;13.50;;;;;;;23.70;76.51;101234.55;214810;1286;140963;-86
2023/09/26 15:36:14;;;;;;;21.50;14.40;;;;;;;23.61;77.09;101229.77;214880;1287;138351;-85
2023/09/26 15:41:17;;;;;;;26.20;14.80;;;;;;;23.52;77.64;101228.67;214292;1289;141639;-85
2023/09/26 15:46:25;;;;;;;24.50;15.20;;;;;;;23.43;78.27;101221.15;215284;1290;139262;-85
2023/09/26 15:51:26;;;;;;;29.10;15.70;;;;;;;23.33;78.62;101222.73;214548;1289;141440;-86
2023/09/26 15:56:27;;;;;;;22.30;14.90;;;;;;;23.22;79.00;101221.10;215019;1285;139073;-86
2023/09/26 16:01:28;;;;;;;22.20;13.80;;;;;;;23.14;79.61;101224.45;215003;1286;141683;-87
2023/09/26 16:06:29;;;;;;;26.90;15.60;;;;;;;23.07;80.08;101220.31;215481;1285;139679;-86
2023/09/26 16:11:29;;;;;;;24.40;15.90;;;;;;;23.00;80.50;101227.48;215011;1289;141431;-85
2023/09/26 16:16:30;;;;;;;24.20;15.40;;;;;;;22.87;81.04;101223.32;215887;1288;141151;-86
2023/09/26 16:21:30;;;;;;;19.90;12.40;;;;;;;22.77;81.46;101221.84;214757;1288;140588;-88
2023/09/26 16:26:31;;;;;;;25.30;15.10;;;;;;;22.67;82.04;101221.54;214844;1292;138929;-89
2023/09/26 16:31:31;;;;;;;26.00;16.20;;;;;;;22.57;82.50;101217.16;214845;1287;141713;-89
2023/09/26 16:36:32;;;;;;;26.70;15.20;;;;;;;22.49;82.86;101218.00;215611;1286;139321;-88
2023/09/26 16:41:32;;;;;;;24.20;16.00;;;;;;;22.35;83.33;101220.81;214838;1289;141808;-89
2023/09/26 16:46:33;;;;;;;24.30;15.10;;;;;;;22.20;83.99;101214.98;215342;1289;139702;-88
2023/09/26 16:51:35;;;;;;;26.70;15.20;;;;;;;22.03;84.67;101212.92;214878;1286;141209;-87
2023/09/26 16:56:36;;;;;;;34.90;16.20;;;;;;;21.89;85.43;101216.13;215281;1289;139298;-87
2023/09/26 17:01:36;;;;;;;28.20;17.10;;;;;;;21.71;86.22;101215.27;215136;1285;141841;-87
2023/09/26 17:06:37;;;;;;;23.10;14.60;;;;;;;21.56;87.09;101215.33;215508;1288;138945;-87
2023/09/26 17:11:37;;;;;;;25.70;15.60;;;;;;;21.39;87.64;101216.48;214941;1286;141599;-86
2023/09/26 17:16:37;;;;;;;22.40;15.40;;;;;;;21.26;88.04;101216.83;215144;1285;139557;-86
2023/09/26 17:21:40;;;;;;;25.20;14.70;;;;;;;21.12;88.14;101219.02;215025;1285;143404;-86
2023/09/26 17:26:40;;;;;;;27.60;16.00;;;;;;;20.99;88.58;101223.98;214960;1286;138855;-87
2023/09/26 17:31:43;;;;;;;21.60;13.50;;;;;;;20.86;89.20;101225.10;214202;1286;141603;-87
2023/09/26 17:36:43;;;;;;;25.40;15.30;;;;;;;20.75;89.32;101222.66;214949;1286;139188;-88
2023/09/26 17:41:43;;;;;;;29.40;15.20;;;;;;;20.61;90.02;101221.78;214774;1286;140301;-88
2023/09/26 17:46:45;;;;;;;25.10;14.40;;;;;;;20.49;90.36;101227.58;215191;1286;140386;-88
2023/09/26 17:51:45;;;;;;;24.80;14.80;;;;;;;20.37;90.67;101228.17;214814;1286;142181;-87
2023/09/26 17:56:46;;;;;;;27.50;14.40;;;;;;;20.25;91.31;101225.48;215436;1286;138879;-88
2023/09/26 18:01:47;;;;;;;21.90;13.30;;;;;;;20.12;91.90;101229.45;214911;1288;140734;-88
2023/09/26 18:06:47;;;;;;;23.20;15.10;;;;;;;20.01;92.37;101234.85;215881;1286;139347;-87
2023/09/26 18:11:48;;;;;;;26.60;15.70;;;;;;;19.90;93.04;101234.23;216170;1287;141013;-88
2023/09/26 18:16:48;;;;;;;25.20;15.60;;;;;;;19.80;94.21;101240.34;216777;1288;139352;-87
2023/09/26 18:21:49;;;;;;;24.90;14.40;;;;;;;19.71;94.44;101242.86;216160;1285;142335;-86
2023/09/26 18:26:49;;;;;;;28.40;17.30;;;;;;;19.60;95.50;101241.24;216574;1288;138967;-88
2023/09/26 18:31:50;;;;;;;25.80;15.70;;;;;;;19.51;96.27;101237.77;215607;1285;141173;-88
2023/09/26 18:36:50;;;;;;;30.70;17.50;;;;;;;19.42;96.90;101239.79;216308;1286;139003;-88
2023/09/26 18:41:51;;;;;;;29.40;17.70;;;;;;;19.32;97.84;101241.11;216151;1287;141786;-88
2023/09/26 18:46:51;;;;;;;31.10;18.80;;;;;;;19.25;98.16;101239.22;216584;1289;139058;-87
2023/09/26 18:51:53;;;;;;;34.30;18.70;;;;;;;19.17;99.10;101242.92;215589;1287;141639;-86
2023/09/26 18:56:53;;;;;;;26.10;17.00;;;;;;;19.10;99.52;101243.33;216651;1285;139034;-87
2023/09/26 19:01:54;;;;;;;24.30;15.30;;;;;;;19.03;99.46;101249.54;216256;1285;141272;-85
2023/09/26 19:06:54;;;;;;;32.10;20.60;;;;;;;18.98;99.68;101251.73;216398;1284;139750;-87
2023/09/26 19:11:56;;;;;;;36.00;22.50;;;;;;;18.90;100.00;101258.11;215388;1286;141175;-87
2023/09/26 19:16:57;;;;;;;34.20;21.90;;;;;;;18.86;100.00;101257.83;215880;1286;140099;-87
2023/09/26 19:21:57;;;;;;;37.50;24.60;;;;;;;18.83;100.00;101253.09;215817;1286;142428;-88
2023/09/26 19:26:57;;;;;;;34.80;23.20;;;;;;;18.79;100.00;101252.95;216283;1286;139212;-86
2023/09/26 19:32:00;;;;;;;41.60;26.90;;;;;;;18.75;100.00;101253.26;216233;1285;141596;-86
2023/09/26 19:37:01;;;;;;;41.60;26.10;;;;;;;18.72;100.00;101254.23;215845;1285;139218;-87
2023/09/26 19:42:03;;;;;;;49.60;29.00;;;;;;;18.69;100.00;101251.47;215373;1290;142192;-87
2023/09/26 19:47:03;;;;;;;48.90;31.00;;;;;;;18.66;100.00;101254.59;215692;1286;139492;-86
2023/09/26 19:52:04;;;;;;;50.40;31.40;;;;;;;18.62;100.00;101251.54;215586;1286;141461;-87
2023/09/26 19:57:05;;;;;;;46.10;28.10;;;;;;;18.57;100.00;101247.27;215625;1287;138829;-87
2023/09/26 20:02:05;;;;;;;48.80;29.50;;;;;;;18.53;100.00;101248.90;215420;1286;141310;-86
2023/09/26 20:07:06;;;;;;;49.50;30.60;;;;;;;18.47;100.00;101246.55;215756;1285;140491;-88
2023/09/26 20:12:06;;;;;;;47.80;29.40;;;;;;;18.41;100.00;101250.02;215005;1286;142146;-87
2023/09/26 20:17:07;;;;;;;44.70;29.70;;;;;;;18.35;100.00;101258.59;215310;1287;139170;-87
2023/09/26 20:22:08;;;;;;;48.70;30.90;;;;;;;18.29;100.00;101258.46;215847;1285;142305;-86
2023/09/26 20:27:08;;;;;;;50.10;31.60;;;;;;;18.23;100.00;101256.27;215620;1285;139485;-86
2023/09/26 20:32:09;;;;;;;47.10;30.80;;;;;;;18.17;100.00;101256.78;215147;1287;141993;-85
2023/09/26 20:37:11;;;;;;;54.90;33.70;;;;;;;18.10;100.00;101257.70;215853;1286;140247;-85
2023/09/26 20:42:12;;;;;;;52.20;32.80;;;;;;;18.01;100.00;101256.41;216616;1285;141626;-87
2023/09/26 20:47:12;;;;;;;50.80;32.40;;;;;;;17.95;100.00;101259.46;215587;1286;140030;-86
2023/09/26 20:52:13;;;;;;;54.80;32.30;;;;;;;17.87;100.00;101260.71;214942;1285;140788;-87
2023/09/26 20:57:13;;;;;;;54.00;32.50;;;;;;;17.80;100.00;101262.88;215508;1285;97934;-86
2023/09/26 21:02:14;;;;;;;55.80;34.10;;;;;;;17.72;100.00;101265.55;214201;1286;140822;-87
2023/09/26 21:07:15;;;;;;;57.30;35.10;;;;;;;17.65;100.00;101264.65;214247;1287;139243;-87
2023/09/26 21:12:15;;;;;;;59.20;34.30;;;;;;;17.56;100.00;101265.94;213904;1287;143275;-85
2023/09/26 21:17:16;;;;;;;56.70;34.40;;;;;;;17.48;100.00;101260.73;214429;1286;140147;-88
2023/09/26 21:22:16;;;;;;;58.60;35.20;;;;;;;17.42;100.00;101262.10;214128;1286;141845;-88
2023/09/26 21:27:16;;;;;;;54.70;34.70;;;;;;;17.35;100.00;101258.44;215052;1288;98001;-88
2023/09/26 21:32:17;;;;;;;55.10;33.50;;;;;;;17.28;100.00;101256.48;214860;1285;141438;-87
2023/09/26 21:37:17;;;;;;;59.70;34.50;;;;;;;17.23;100.00;101251.95;215380;1286;139662;-88
2023/09/26 21:42:18;;;;;;;55.10;34.40;;;;;;;17.18;100.00;101252.37;214079;1285;141092;-88
2023/09/26 21:47:18;;;;;;;53.60;33.60;;;;;;;17.12;100.00;101254.21;214342;1287;139262;-86
2023/09/26 21:52:18;;;;;;;56.50;34.90;;;;;;;17.04;100.00;101252.64;214159;1287;141454;-86
2023/09/26 21:57:19;;;;;;;62.10;36.40;;;;;;;16.99;100.00;101250.67;215074;1286;98020;-87
2023/09/26 22:02:19;;;;;;;59.30;36.20;;;;;;;16.94;100.00;101250.43;214679;1285;141663;-87
2023/09/26 22:07:20;;;;;;;56.60;34.90;;;;;;;16.87;100.00;101248.85;215029;1286;139178;-87
2023/09/26 22:12:20;;;;;;;60.00;33.60;;;;;;;16.80;100.00;101250.29;214975;1285;140721;-87